Time;durP1;ratioP1;P1;durP2;ratioP2;P2;SDS_P1;SDS_P2;PMS_P1;PMS_P2;Temp;Humidity;BMP_temperature;BMP_pressure;BME280_temperature;BME280_humidity;BME280_pressure;Samples;Min_cycle;Max_cycle;Signal;HPM_P1;HPM_P2
2022/12/17 13:08:07;;;;;;;6.15;5.32;;;;;;;30.30;57.70;100866.38;5052277;28;66429;-43
2022/12/17 13:11:08;;;;;;;5.70;5.20;;;;;;;30.24;57.30;100863.47;5055876;28;71042;-41
2022/12/17 13:14:14;;;;;;;6.03;4.93;;;;;;;30.22;56.92;100879.09;5056930;28;67288;-40
2022/12/17 13:17:04;;;;;;;9.70;5.60;;;;;;;30.15;56.58;100882.88;5055516;28;70000;-42
2022/12/17 13:19:58;;;;;;;26.40;6.25;;;;;;;30.14;57.10;100884.72;5066409;28;66499;-42
2022/12/17 13:22:52;;;;;;;20.55;5.53;;;;;;;30.08;56.12;100888.28;5051688;28;71007;-43
2022/12/17 13:25:43;;;;;;;19.98;6.60;;;;;;;30.05;56.27;100894.13;5047390;28;67271;-43
2022/12/17 13:28:33;;;;;;;10.52;4.97;;;;;;;30.00;55.36;100893.94;5047575;28;71175;-44
2022/12/17 13:31:30;;;;;;;7.40;4.47;;;;;;;29.90;55.26;100880.06;5051583;28;67418;-43
2022/12/17 13:34:35;;;;;;;44.25;5.25;;;;;;;29.99;55.42;100911.22;5048834;28;71130;-42
2022/12/17 13:37:54;;;;;;;45.67;6.45;;;;;;;29.98;54.60;100920.41;5057204;28;66458;-45
2022/12/17 13:41:06;;;;;;;20.40;5.72;;;;;;;29.90;55.26;100910.63;5047600;28;70867;-46
2022/12/17 13:44:36;;;;;;;;;;;;;;;29.72;56.23;100911.28;5057530;28;67267;-46
2022/12/17 13:47:29;;;;;;;42.15;8.60;;;;;;;29.92;56.66;100910.41;4964217;28;71294;-45
2022/12/17 13:50:23;;;;;;;48.42;9.80;;;;;;;29.92;57.32;100907.69;4979315;28;66542;-48
2022/12/17 13:53:23;;;;;;;79.35;9.82;;;;;;;29.96;57.10;100917.06;5053004;28;70488;-51
2022/12/17 13:56:13;;;;;;;30.40;7.80;;;;;;;30.04;57.62;100922.25;5049254;28;67360;-43
2022/12/17 13:59:05;;;;;;;35.83;7.85;;;;;;;30.00;57.29;100921.00;5051132;28;70495;-45
2022/12/17 14:01:57;;;;;;;34.28;7.65;;;;;;;29.99;56.83;100932.84;5052035;28;67553;-40
2022/12/17 14:05:01;;;;;;;19.38;7.32;;;;;;;29.68;56.90;100874.09;5044230;28;71011;-43
2022/12/17 14:07:59;;;;;;;24.67;7.13;;;;;;;30.04;56.70;100935.75;5057069;28;67295;-44
2022/12/17 14:12:20;;;;;;;18.67;6.88;;;;;;;29.92;57.92;100905.00;5056162;28;71126;-44
2022/12/17 14:14:03;;;;;;;18.58;6.00;;;;;;;30.02;56.64;100932.44;5048867;28;66674;-45
2022/12/17 14:16:57;;;;;;;9.93;4.90;;;;;;;29.95;56.51;100924.34;5045050;28;71290;-46
2022/12/17 14:20:01;;;;;;;10.52;4.88;;;;;;;29.46;55.17;100843.75;5053279;28;67461;-45
2022/12/17 14:22:58;;;;;;;4.95;3.88;;;;;;;29.91;54.68;100919.56;5051457;28;70359;-43
2022/12/17 14:25:48;;;;;;;13.27;3.78;;;;;;;29.81;54.42;100926.25;5048125;28;67010;-44
2022/12/17 14:28:48;;;;;;;10.90;3.10;;;;;;;29.80;53.83;100932.69;5054173;28;71093;-45
2022/12/17 14:31:39;;;;;;;7.20;3.20;;;;;;;29.74;54.00;100933.53;5064169;27;66078;-44
2022/12/17 14:34:41;;;;;;;6.40;2.83;;;;;;;29.78;52.67;100942.91;5038461;28;71099;-44
2022/12/17 14:37:31;;;;;;;3.97;2.75;;;;;;;29.75;52.49;100932.50;5056189;28;67417;-46
2022/12/17 14:40:26;;;;;;;4.70;2.40;;;;;;;29.32;51.91;100857.28;5053822;28;70575;-48
2022/12/17 14:43:20;;;;;;;7.18;2.33;;;;;;;29.79;51.71;100928.34;5063219;27;67279;-46
2022/12/17 14:46:20;;;;;;;5.03;2.38;;;;;;;29.48;51.15;100887.63;5047239;28;70083;-43
2022/12/17 14:49:19;;;;;;;3.13;1.88;;;;;;;29.79;50.12;100935.63;5049787;28;67663;-45
2022/12/17 14:52:13;;;;;;;2.25;1.92;;;;;;;29.79;49.86;100922.94;5049008;28;71153;-45
2022/12/17 14:55:22;;;;;;;5.57;1.65;;;;;;;29.70;51.53;100928.75;5049261;28;67508;-45
2022/12/17 14:58:15;;;;;;;4.43;2.10;;;;;;;29.77;51.67;100925.00;5048375;28;70963;-45
2022/12/17 15:01:11;;;;;;;3.17;2.25;;;;;;;29.78;50.69;100932.09;5052683;28;67543;-44
2022/12/17 15:04:02;;;;;;;3.72;1.80;;;;;;;29.74;50.58;100925.44;5049877;28;70467;-44
2022/12/17 15:06:54;;;;;;;2.67;1.85;;;;;;;29.74;49.35;100920.03;5055530;28;67563;-44
2022/12/17 15:09:44;;;;;;;;;;;;;;;29.47;49.94;100918.38;5054289;28;70075;-45
2022/12/17 15:12:35;;;;;;;4.25;1.95;;;;;;;29.66;49.05;100909.44;5051916;28;66640;-44
2022/12/17 15:15:25;;;;;;;2.88;1.42;;;;;;;29.67;48.76;100924.63;5055997;28;71131;-45
2022/12/17 15:18:15;;;;;;;1.73;1.60;;;;;;;29.67;48.58;100930.03;5047090;28;66651;-43
2022/12/17 15:21:05;;;;;;;2.25;1.55;;;;;;;29.66;48.85;100928.38;5055044;28;69892;-43
2022/12/17 15:23:55;;;;;;;1.67;1.30;;;;;;;29.58;47.98;100920.44;5041994;28;67221;-43
2022/12/17 15:26:46;;;;;;;3.65;1.48;;;;;;;29.62;47.97;100929.81;5055201;28;70734;-44
2022/12/17 15:29:35;;;;;;;1.45;1.30;;;;;;;29.59;47.51;100922.13;5050429;28;67223;-44
2022/12/17 15:32:26;;;;;;;1.55;1.15;;;;;;;29.53;47.03;100912.13;5052102;28;71117;-43
2022/12/17 15:35:16;;;;;;;2.80;1.40;;;;;;;29.53;46.96;100917.53;5044611;28;67301;-45
2022/12/17 15:38:07;;;;;;;1.38;0.95;;;;;;;29.58;46.98;100931.25;5049271;28;71449;-45
2022/12/17 15:44:11;;;;;;;1.83;1.23;;;;;;;29.49;46.64;100921.72;5045864;28;70504;-43
2022/12/17 15:47:02;;;;;;;1.63;1.45;;;;;;;29.36;47.32;100896.38;5050606;28;66994;-44
2022/12/17 15:49:52;;;;;;;1.67;1.15;;;;;;;29.47;47.16;100923.78;5048750;28;71079;-43
2022/12/17 15:52:44;;;;;;;4.25;1.25;;;;;;;29.40;46.87;100910.28;5054100;28;67245;-43
2022/12/17 15:55:35;;;;;;;2.40;1.17;;;;;;;29.44;46.88;100911.53;5049495;28;71167;-41
2022/12/17 15:58:25;;;;;;;2.38;1.38;;;;;;;29.46;46.62;100919.44;5051463;28;67174;-43
2022/12/17 16:01:16;;;;;;;4.22;1.40;;;;;;;29.46;46.13;100914.03;5055346;28;71305;-43
2022/12/17 16:04:06;;;;;;;1.85;1.08;;;;;;;29.35;46.46;100902.81;5050637;28;67605;-43
2022/12/17 16:07:06;;;;;;;2.95;1.08;;;;;;;29.43;46.61;100906.34;5039629;28;71677;-44
2022/12/17 16:09:56;;;;;;;6.97;1.40;;;;;;;29.43;47.07;100907.16;5057506;28;67295;-41
2022/12/17 16:12:52;;;;;;;9.55;1.23;;;;;;;29.44;47.46;100903.41;5055592;28;70554;-41
2022/12/17 16:15:43;;;;;;;7.22;1.20;;;;;;;29.45;47.16;100882.63;5049348;28;67285;-42
2022/12/17 16:18:37;;;;;;;7.38;1.30;;;;;;;29.51;46.88;100892.63;5053764;28;70514;-43
2022/12/17 16:21:28;;;;;;;4.88;1.33;;;;;;;29.50;46.02;100899.03;5073150;27;67304;-42
2022/12/17 16:24:18;;;;;;;2.58;1.25;;;;;;;29.51;45.98;100900.72;5056187;28;71285;-40
2022/12/17 16:27:09;;;;;;;2.90;1.52;;;;;;;29.49;46.00;100905.50;5047873;28;67237;-40
2022/12/17 16:29:59;;;;;;;4.38;1.30;;;;;;;29.44;46.45;100889.06;5053799;28;70404;-41
2022/12/17 16:32:49;;;;;;;2.17;1.30;;;;;;;29.48;45.62;100898.44;5056096;28;66835;-42
2022/12/17 16:35:39;;;;;;;5.05;1.27;;;;;;;29.45;45.95;100904.25;5057363;28;71049;-43
2022/12/17 16:38:30;;;;;;;2.58;1.60;;;;;;;29.45;45.48;100904.25;5053376;28;66142;-44
2022/12/17 16:41:22;;;;;;;4.00;1.30;;;;;;;29.46;45.12;100905.91;5055489;28;71093;-45
2022/12/17 16:44:13;;;;;;;2.03;1.23;;;;;;;29.45;44.85;100912.34;5057562;28;67262;-45
2022/12/17 16:47:03;;;;;;;2.90;1.27;;;;;;;29.45;44.81;100898.84;5053608;28;71092;-45
2022/12/17 16:49:53;;;;;;;3.65;1.05;;;;;;;29.31;45.05;100877.25;5032846;28;67160;-43
2022/12/17 16:52:47;;;;;;;2.90;1.48;;;;;;;29.46;44.56;100884.31;5054885;28;43557;-45
2022/12/17 16:55:45;;;;;;;4.72;1.25;;;;;;;29.22;44.11;100867.69;5053339;28;66463;-44
2022/12/17 16:58:35;;;;;;;6.28;1.20;;;;;;;29.46;44.92;100889.72;5051842;28;70968;-44
2022/12/17 17:01:28;;;;;;;2.13;1.20;;;;;;;29.44;44.87;100870.97;5049394;28;67008;-43
2022/12/17 17:04:21;;;;;;;3.03;0.70;;;;;;;29.57;45.05;100883.66;5052707;28;70340;-42
2022/12/17 17:07:11;;;;;;;6.25;1.27;;;;;;;29.54;44.57;100892.19;5057965;28;66961;-45
2022/12/17 17:10:01;;;;;;;4.68;1.30;;;;;;;29.55;44.69;100888.44;5048915;28;72711;-44
2022/12/17 17:12:51;;;;;;;9.05;0.98;;;;;;;29.54;43.89;100886.78;5049621;28;67240;-42
2022/12/17 17:15:41;;;;;;;13.63;1.10;;;;;;;29.51;43.58;100876.41;5052744;28;70484;-41
2022/12/17 17:18:32;;;;;;;1.08;0.90;;;;;;;29.49;43.92;100878.47;5058070;28;67306;-44
2022/12/17 17:21:28;;;;;;;5.35;0.98;;;;;;;29.09;43.06;100800.19;5052348;28;71145;-44
2022/12/17 17:24:22;;;;;;;6.35;1.40;;;;;;;29.03;43.95;100793.78;5052220;28;66595;-43
2022/12/17 17:27:12;;;;;;;6.05;1.05;;;;;;;29.45;43.83;100866.41;5056119;28;71182;-42
2022/12/17 17:30:03;;;;;;;2.25;1.00;;;;;;;29.39;43.17;100852.72;5051669;28;66889;-44
2022/12/17 17:32:55;;;;;;;2.00;0.98;;;;;;;29.39;42.83;100862.69;5055540;28;70020;-42
2022/12/17 17:35:45;;;;;;;1.23;0.93;;;;;;;29.37;42.95;100857.50;5025785;28;67227;-42
2022/12/17 17:38:36;;;;;;;2.95;1.13;;;;;;;28.93;42.57;100783.34;5048570;28;70989;-43
2022/12/17 17:41:28;;;;;;;;;;;;;;;29.11;43.40;100857.53;5053026;28;67287;-43
2022/12/17 17:44:18;;;;;;;1.13;0.82;;;;;;;29.34;42.97;100839.00;5052766;28;70487;-44
2022/12/17 17:47:08;;;;;;;1.55;0.82;;;;;;;29.35;42.44;100840.66;5055765;28;67371;-40
2022/12/17 17:49:59;;;;;;;2.83;0.90;;;;;;;29.30;42.49;100826.94;5054456;28;70818;-41
2022/12/17 17:52:49;;;;;;;1.02;0.80;;;;;;;29.25;42.70;100820.50;5056883;28;67240;-40
2022/12/17 17:55:38;;;;;;;1.50;1.00;;;;;;;29.30;42.49;100829.66;5050565;28;71114;-41
2022/12/17 17:58:29;;;;;;;1.95;1.02;;;;;;;29.28;43.33;100811.97;5046641;28;66506;-40
2022/12/17 18:01:27;;;;;;;3.15;0.90;;;;;;;29.29;42.23;100813.66;5055207;28;71194;-39
2022/12/17 18:04:22;;;;;;;1.45;1.10;;;;;;;28.80;42.30;100734.75;5049961;28;67311;-41
2022/12/17 18:07:12;;;;;;;1.95;0.95;;;;;;;29.24;42.10;100817.00;5059348;28;70542;-42
2022/12/17 18:10:18;;;;;;;1.10;0.90;;;;;;;29.22;42.62;100821.75;5063786;27;66413;-43
2022/12/17 18:16:17;;;;;;;1.13;0.98;;;;;;;29.22;42.54;100823.63;5058145;28;67394;-41
2022/12/17 18:19:28;;;;;;;1.70;1.05;;;;;;;29.23;42.38;100815.34;5049372;28;70096;-42
2022/12/17 18:22:18;;;;;;;2.83;0.80;;;;;;;29.19;42.18;100808.69;5054712;28;66628;-42
2022/12/17 18:25:09;;;;;;;4.22;1.02;;;;;;;29.18;41.85;100801.63;5059989;28;70361;-43
2022/12/17 18:27:59;;;;;;;2.17;0.93;;;;;;;29.19;42.63;100795.19;5045888;28;66692;-41
2022/12/17 18:30:49;;;;;;;8.07;0.90;;;;;;;29.09;41.81;100786.69;5047863;28;70316;-40
2022/12/17 18:33:42;;;;;;;1.20;0.82;;;;;;;28.94;41.98;100763.41;5054723;28;67295;-41
2022/12/17 18:36:36;;;;;;;3.33;1.20;;;;;;;29.03;42.20;100772.16;5043787;28;71273;-41
2022/12/17 18:39:26;;;;;;;1.63;0.73;;;;;;;29.02;41.57;100775.84;5052158;28;67256;-42
2022/12/17 18:45:24;;;;;;;1.35;0.80;;;;;;;29.12;42.14;100780.88;5052560;28;67274;-43
2022/12/17 18:48:14;;;;;;;1.20;0.82;;;;;;;29.01;41.64;100754.47;5050761;28;70511;-44
2022/12/17 18:51:05;;;;;;;1.17;0.68;;;;;;;29.10;41.74;100772.13;5051999;28;66656;-42
2022/12/17 18:54:00;;;;;;;3.90;1.02;;;;;;;29.10;41.16;100786.47;5056374;28;70403;-43
2022/12/17 18:56:52;;;;;;;1.30;0.70;;;;;;;29.09;41.87;100775.91;5053434;28;66659;-42
2022/12/17 18:59:58;;;;;;;1.73;0.88;;;;;;;29.04;41.80;100773.00;5053678;28;71142;-43
2022/12/17 19:02:48;;;;;;;1.70;0.75;;;;;;;29.04;41.83;100754.91;5055289;28;66961;-42
2022/12/17 19:05:39;;;;;;;0.88;0.75;;;;;;;29.07;41.96;100750.97;5059186;28;70478;-42
2022/12/17 19:08:35;;;;;;;1.25;0.73;;;;;;;29.05;42.02;100747.63;5053599;28;67558;-42
2022/12/17 19:11:35;;;;;;;1.25;0.88;;;;;;;29.02;41.73;100742.63;5050847;28;71215;-42
2022/12/17 19:14:31;;;;;;;1.48;1.10;;;;;;;29.00;41.81;100728.50;5057152;28;66181;-43
2022/12/17 19:17:21;;;;;;;4.38;1.00;;;;;;;28.96;41.48;100710.00;5053730;28;70068;-43
2022/12/17 19:20:11;;;;;;;1.35;0.80;;;;;;;29.01;41.57;100708.56;5053639;28;67735;-41
2022/12/17 19:23:01;;;;;;;1.63;0.90;;;;;;;29.00;41.80;100706.88;5056937;28;71176;-42
2022/12/17 19:25:51;;;;;;;1.35;0.93;;;;;;;28.96;41.34;100701.91;5054463;28;67030;-42
2022/12/17 19:28:44;;;;;;;1.23;0.98;;;;;;;28.96;41.41;100701.09;5058229;28;71104;-43
2022/12/17 19:31:35;;;;;;;3.90;0.70;;;;;;;28.93;41.37;100702.34;5067180;27;67753;-43
2022/12/17 19:34:25;;;;;;;1.55;1.20;;;;;;;28.94;41.73;100704.00;5049948;28;70897;-43
2022/12/17 19:37:15;;;;;;;1.83;1.10;;;;;;;28.92;41.59;100711.50;5051591;28;66163;-40
2022/12/17 19:40:06;;;;;;;2.08;0.85;;;;;;;28.98;41.63;100719.78;5057577;28;70555;-42
2022/12/17 19:42:56;;;;;;;1.88;1.13;;;;;;;28.95;41.37;100715.66;5053334;28;67213;-42
2022/12/17 19:45:46;;;;;;;0.88;0.70;;;;;;;28.88;42.09;100694.03;5054085;28;71687;-41
2022/12/17 19:48:38;;;;;;;1.88;0.80;;;;;;;28.47;41.43;100641.19;5054164;28;67137;-41
2022/12/17 19:51:38;;;;;;;2.13;0.90;;;;;;;28.91;41.53;100709.81;5070189;27;71573;-42
2022/12/17 19:54:28;;;;;;;3.55;1.30;;;;;;;28.87;41.27;100703.19;5054746;28;66503;-42
2022/12/17 19:57:18;;;;;;;1.50;0.93;;;;;;;28.92;41.50;100716.06;5049797;28;70452;-41
2022/12/17 20:00:09;;;;;;;2.17;1.00;;;;;;;28.88;41.90;100712.94;5054060;28;67282;-40
2022/12/17 20:03:02;;;;;;;3.08;1.02;;;;;;;28.86;41.35;100712.34;5054348;28;70518;-40
2022/12/17 20:05:53;;;;;;;4.45;0.77;;;;;;;28.84;41.81;100733.31;5051918;28;67268;-42
2022/12/17 20:08:43;;;;;;;9.52;1.00;;;;;;;28.89;42.02;100741.63;5055493;28;71089;-42
2022/12/17 20:11:34;;;;;;;4.00;1.00;;;;;;;28.46;41.67;100682.69;5056394;28;67253;-43
2022/12/17 20:14:27;;;;;;;1.58;1.10;;;;;;;28.69;41.79;100703.00;5049107;28;70358;-42
2022/12/17 20:17:17;;;;;;;1.55;0.80;;;;;;;28.81;41.19;100724.81;5054589;28;66909;-42
2022/12/17 20:20:07;;;;;;;6.90;1.17;;;;;;;28.82;41.22;100719.19;5047070;28;70089;-43
2022/12/17 20:22:57;;;;;;;2.20;1.15;;;;;;;28.80;41.40;100723.97;5058281;28;67263;-44
2022/12/17 20:25:47;;;;;;;1.20;1.00;;;;;;;28.81;41.48;100720.25;5055808;28;71169;-43
2022/12/17 20:28:37;;;;;;;1.60;1.17;;;;;;;28.81;41.61;100722.94;5054467;28;66859;-42
2022/12/17 20:31:28;;;;;;;1.08;0.88;;;;;;;28.65;41.31;100688.28;5058095;28;71042;-44
2022/12/17 20:34:21;;;;;;;1.30;0.80;;;;;;;28.70;41.17;100707.38;5058148;28;67497;-44
2022/12/17 20:37:11;;;;;;;1.52;0.70;;;;;;;28.75;41.14;100715.66;5054041;28;70398;-43
2022/12/17 20:40:01;;;;;;;1.52;0.82;;;;;;;28.78;41.01;100726.06;5053931;28;66613;-43
2022/12/17 20:42:51;;;;;;;1.38;1.00;;;;;;;28.76;41.00;100720.03;5051784;28;71055;-43
2022/12/17 20:45:54;;;;;;;2.13;0.90;;;;;;;28.67;41.10;100713.19;5054062;28;66590;-42
2022/12/17 20:48:44;;;;;;;1.20;0.80;;;;;;;28.64;40.90;100703.66;5055711;28;71220;-43
2022/12/17 20:51:34;;;;;;;2.53;1.02;;;;;;;28.72;40.90;100706.13;5054701;28;66869;-41
2022/12/17 20:54:24;;;;;;;0.85;0.80;;;;;;;28.59;40.86;100689.13;5048032;28;70994;-42
2022/12/17 20:57:15;;;;;;;2.40;0.80;;;;;;;28.65;41.11;100702.59;5049172;28;67392;-43
2022/12/17 21:00:05;;;;;;;1.02;0.75;;;;;;;28.66;41.10;100698.84;5048534;28;71060;-42
2022/12/17 21:02:56;;;;;;;4.18;0.85;;;;;;;28.63;41.07;100707.38;5052784;28;66608;-43
2022/12/17 21:05:46;;;;;;;1.15;0.73;;;;;;;28.62;41.12;100702.19;5058378;28;71096;-42
2022/12/17 21:08:37;;;;;;;0.88;0.77;;;;;;;28.61;40.80;100704.06;5057085;28;66565;-41
2022/12/17 21:11:36;;;;;;;1.55;0.90;;;;;;;28.57;41.12;100691.19;5046695;28;70859;-40
2022/12/17 21:14:27;;;;;;;1.15;1.00;;;;;;;28.45;41.07;100677.50;5051774;28;66559;-42
2022/12/17 21:17:23;;;;;;;1.30;0.88;;;;;;;28.57;41.29;100696.59;5058632;28;70373;-41
2022/12/17 21:20:13;;;;;;;1.30;0.70;;;;;;;28.55;40.86;100693.25;5056257;28;66599;-42
2022/12/17 21:23:03;;;;;;;2.85;0.85;;;;;;;28.53;40.64;100701.59;5051512;28;71173;-42
2022/12/17 21:26:08;;;;;;;1.27;0.60;;;;;;;28.48;40.92;100704.06;5056003;28;66687;-42
2022/12/17 21:29:00;;;;;;;0.88;0.80;;;;;;;28.52;40.83;100719.63;5054342;28;71124;-43
2022/12/17 21:31:52;;;;;;;1.13;0.90;;;;;;;28.47;41.28;100714.03;5044955;28;66339;-42
2022/12/17 21:34:42;;;;;;;0.88;0.60;;;;;;;28.51;40.87;100714.44;5053574;28;71159;-41
2022/12/17 21:37:32;;;;;;;1.20;0.90;;;;;;;28.48;40.96;100704.91;5053102;28;66576;-41
2022/12/17 21:40:22;;;;;;;1.58;0.93;;;;;;;28.54;41.06;100707.81;5048219;28;70504;-41
2022/12/17 21:43:12;;;;;;;3.75;0.85;;;;;;;28.58;41.48;100717.13;5053527;28;67268;-42
2022/12/17 21:46:03;;;;;;;1.08;0.75;;;;;;;28.54;41.31;100716.72;5048747;28;70759;-41
2022/12/17 21:48:53;;;;;;;5.22;0.82;;;;;;;28.54;41.25;100707.81;5058350;28;66775;-42
2022/12/17 21:51:44;;;;;;;4.28;0.95;;;;;;;28.36;41.73;100684.09;5056737;28;71187;-41
2022/12/17 21:54:33;;;;;;;4.78;1.20;;;;;;;28.46;41.32;100700.75;5051417;28;67327;-41
2022/12/17 21:57:24;;;;;;;1.27;1.02;;;;;;;28.49;41.37;100705.72;5053199;28;70518;-40
2022/12/17 22:00:15;;;;;;;4.65;1.00;;;;;;;28.50;41.49;100708.22;5047819;28;66710;-41
2022/12/17 22:03:05;;;;;;;1.33;1.20;;;;;;;28.40;41.10;100675.41;5051895;28;70550;-42
2022/12/17 22:05:55;;;;;;;2.58;0.93;;;;;;;28.52;41.25;100708.81;5054361;28;67286;-43
2022/12/17 22:08:46;;;;;;;1.33;1.15;;;;;;;28.50;41.01;100712.78;5048804;28;71052;-44
2022/12/17 22:11:38;;;;;;;4.95;1.20;;;;;;;28.46;40.94;100717.75;5055324;28;67313;-42
2022/12/17 22:14:29;;;;;;;2.67;1.33;;;;;;;28.44;41.05;100729.78;5047394;28;70287;-43
2022/12/17 22:17:19;;;;;;;2.58;1.20;;;;;;;28.03;41.51;100669.59;5050931;28;66395;-42
2022/12/17 22:20:10;;;;;;;1.73;1.10;;;;;;;27.93;41.31;100655.69;5049592;28;71216;-42
2022/12/17 22:23:00;;;;;;;1.40;1.15;;;;;;;28.39;41.34;100743.91;5054913;28;66999;-42
2022/12/17 22:25:50;;;;;;;6.05;1.58;;;;;;;28.24;41.45;100719.78;5049840;28;71285;-43
2022/12/17 22:28:42;;;;;;;3.38;0.93;;;;;;;28.35;41.33;100752.59;5048996;28;67319;-41
2022/12/17 22:34:41;;;;;;;2.22;1.55;;;;;;;28.32;41.14;100751.16;5053099;28;67415;-42
2022/12/17 22:37:52;;;;;;;5.30;1.10;;;;;;;28.30;41.46;100755.91;5053788;28;72390;-41
2022/12/17 22:41:06;;;;;;;2.60;1.25;;;;;;;28.30;41.06;100761.31;5052877;28;67339;-41
2022/12/17 22:44:16;;;;;;;2.05;1.40;;;;;;;28.27;40.98;100761.72;5051590;28;70727;-42
2022/12/17 22:47:26;;;;;;;1.40;1.30;;;;;;;28.16;41.24;100752.34;5052965;28;66580;-40
2022/12/17 22:50:16;;;;;;;2.72;1.50;;;;;;;28.25;41.19;100761.94;5055574;28;70322;-42
2022/12/17 22:53:15;;;;;;;3.17;1.42;;;;;;;28.23;41.13;100772.09;5049872;28;66836;-41
2022/12/17 22:56:06;;;;;;;1.80;1.55;;;;;;;28.21;40.55;100770.63;5052149;28;70152;-41
2022/12/17 22:59:18;;;;;;;1.38;1.17;;;;;;;28.14;40.65;100761.69;5053552;28;67135;-41
2022/12/17 23:02:09;;;;;;;1.40;1.30;;;;;;;27.83;41.21;100736.09;5052425;28;70337;-43
2022/12/17 23:04:59;;;;;;;1.55;1.40;;;;;;;28.16;41.58;100781.19;5057733;28;67172;-42
2022/12/17 23:07:50;;;;;;;1.80;1.70;;;;;;;28.26;42.59;100800.53;5052209;28;70589;-42
2022/12/17 23:10:40;;;;;;;1.70;1.60;;;;;;;28.20;43.23;100788.69;5055953;28;67362;-42
2022/12/17 23:13:30;;;;;;;2.15;1.75;;;;;;;28.34;43.88;100811.13;5052382;28;70827;-42
2022/12/17 23:16:22;;;;;;;2.08;1.88;;;;;;;28.39;44.10;100819.44;5053610;28;66501;-42
2022/12/17 23:19:12;;;;;;;2.92;1.90;;;;;;;28.41;44.64;100821.91;5061079;28;70942;-43
2022/12/17 23:22:02;;;;;;;1.80;1.70;;;;;;;28.42;44.70;100805.56;5057144;28;66895;-40
2022/12/17 23:24:52;;;;;;;1.85;1.75;;;;;;;28.48;45.40;100796.66;5051703;28;70917;-41
2022/12/17 23:27:43;;;;;;;2.20;1.73;;;;;;;28.56;45.88;100808.28;5050460;28;67239;-42
2022/12/17 23:30:35;;;;;;;2.13;1.98;;;;;;;28.58;46.08;100806.19;5054717;28;71041;-42
2022/12/17 23:33:25;;;;;;;2.25;2.05;;;;;;;28.63;46.49;100814.50;5059922;28;66479;-41
2022/12/17 23:36:18;;;;;;;2.17;1.92;;;;;;;28.64;46.24;100808.06;5056153;28;71375;-41
2022/12/17 23:39:08;;;;;;;2.72;2.20;;;;;;;28.73;47.19;100820.34;5052945;28;66604;-40
2022/12/17 23:41:59;;;;;;;6.43;2.38;;;;;;;28.75;47.00;100818.22;5056358;28;71111;-41
2022/12/17 23:44:49;;;;;;;6.22;2.42;;;;;;;28.67;47.69;100810.38;5056099;28;67200;-42
2022/12/17 23:47:40;;;;;;;2.92;2.53;;;;;;;28.75;47.71;100829.03;5052089;28;70875;-42
2022/12/17 23:50:30;;;;;;;3.78;2.05;;;;;;;28.82;48.41;100839.84;5056628;28;66550;-42
2022/12/17 23:53:20;;;;;;;5.88;2.65;;;;;;;28.84;49.06;100849.41;5056999;28;71151;-43
2022/12/17 23:56:15;;;;;;;7.13;2.83;;;;;;;28.91;50.39;100839.41;5053113;28;66446;-41
2022/12/17 23:59:05;;;;;;;4.40;3.17;;;;;;;28.90;50.19;100853.16;5053410;28;71259;-41
